Time;durP1;ratioP1;P1;durP2;ratioP2;P2;SDS_P1;SDS_P2;PMS_P1;PMS_P2;Temp;Humidity;BMP_temperature;BMP_pressure;BME280_temperature;BME280_humidity;BME280_pressure;Samples;Min_cycle;Max_cycle;Signal;HPM_P1;HPM_P2
2023/01/29 00:01:46;;;;;;;10.77;9.87;;;-0.50;66.60;;;;;;6262697;28;20230;-82
2023/01/29 00:04:50;;;;;;;11.23;10.13;;;-0.60;66.90;;;;;;6264199;28;20319;-83
2023/01/29 00:07:53;;;;;;;11.20;10.20;;;-0.50;66.70;;;;;;6265864;28;20315;-81
2023/01/29 00:11:02;;;;;;;11.43;10.47;;;-0.60;66.80;;;;;;6265038;28;20372;-81
2023/01/29 00:14:06;;;;;;;11.00;10.10;;;-0.50;66.80;;;;;;6265557;28;20321;-83
2023/01/29 00:17:10;;;;;;;10.57;9.63;;;-0.50;67.10;;;;;;6262077;28;20267;-82
2023/01/29 00:20:14;;;;;;;13.63;10.90;;;-0.50;67.00;;;;;;6263814;28;20296;-80
2023/01/29 00:23:18;;;;;;;11.40;10.23;;;-0.50;67.10;;;;;;6264771;28;20816;-80
2023/01/29 00:26:23;;;;;;;12.20;11.20;;;-0.50;67.00;;;;;;6263248;28;20313;-81
2023/01/29 00:29:26;;;;;;;12.47;11.47;;;-0.50;67.10;;;;;;6264870;28;20707;-83
2023/01/29 00:32:30;;;;;;;11.80;10.70;;;-0.50;67.10;;;;;;6265693;28;20307;-82
2023/01/29 00:35:34;;;;;;;13.73;12.53;;;-0.50;67.30;;;;;;6272898;28;20260;-82
2023/01/29 00:38:38;;;;;;;13.40;11.40;;;-0.60;67.20;;;;;;6263821;28;20234;-82
2023/01/29 00:45:05;;;;;;;12.97;11.63;;;-0.50;67.50;;;;;;6264061;28;20234;-82
2023/01/29 00:48:09;;;;;;;12.40;11.30;;;-0.50;67.50;;;;;;6262532;28;20249;-82
2023/01/29 00:51:13;;;;;;;13.00;11.80;;;-0.50;67.50;;;;;;6248954;28;20250;-82
2023/01/29 00:54:16;;;;;;;13.97;12.63;;;-0.40;67.50;;;;;;6239091;28;20755;-84
2023/01/29 00:57:22;;;;;;;14.37;12.90;;;-0.30;67.20;;;;;;6247903;28;20244;-83
2023/01/29 01:00:33;;;;;;;15.23;13.00;;;-0.30;67.20;;;;;;6272035;28;20258;-82
2023/01/29 01:03:40;;;;;;;13.27;11.93;;;-0.30;67.30;;;;;;6260878;28;20770;-80
2023/01/29 01:06:44;;;;;;;15.07;13.33;;;-0.30;67.30;;;;;;6262224;28;20338;-81
2023/01/29 01:13:12;;;;;;;17.60;13.60;;;-0.30;67.50;;;;;;6263850;28;20722;-84
2023/01/29 01:16:19;;;;;;;14.53;13.13;;;-0.20;67.40;;;;;;6267019;28;20321;-80
2023/01/29 01:19:22;;;;;;;16.83;13.20;;;-0.20;67.30;;;;;;6266818;28;20241;-81
2023/01/29 01:22:25;;;;;;;15.47;13.63;;;-0.10;67.40;;;;;;6258457;28;20252;-82
2023/01/29 01:25:29;;;;;;;17.00;14.50;;;-0.10;67.30;;;;;;6243351;28;20241;-82
2023/01/29 01:28:34;;;;;;;16.77;14.23;;;-0.10;67.60;;;;;;6243150;28;20442;-82
2023/01/29 01:31:37;;;;;;;16.40;14.60;;;-0.20;67.90;;;;;;6247276;28;20241;-81
2023/01/29 01:34:41;;;;;;;14.77;13.30;;;-0.20;68.20;;;;;;6260754;28;20231;-82
2023/01/29 01:37:44;;;;;;;21.60;16.50;;;-0.30;68.30;;;;;;6252830;28;20276;-82
2023/01/29 01:40:48;;;;;;;16.20;14.43;;;-0.30;68.50;;;;;;6266620;28;20241;-81
2023/01/29 01:43:56;;;;;;;18.57;15.43;;;-0.30;68.50;;;;;;6266229;28;20234;-82
2023/01/29 01:47:01;;;;;;;16.50;14.90;;;-0.20;68.60;;;;;;6244210;28;20324;-82
2023/01/29 01:50:10;;;;;;;15.97;14.43;;;-0.20;68.60;;;;;;6249792;28;20280;-81
2023/01/29 01:53:20;;;;;;;17.03;15.23;;;-0.30;68.90;;;;;;6243956;28;20782;-82
2023/01/29 01:56:27;;;;;;;16.03;14.33;;;-0.30;68.90;;;;;;6244059;28;20241;-82
2023/01/29 01:59:34;;;;;;;16.83;15.03;;;-0.20;68.80;;;;;;6242829;28;20355;-80
2023/01/29 02:09:34;;;;;;;18.40;14.90;;;-0.20;69.00;;;;;;6240407;28;20231;-83
2023/01/29 02:12:38;;;;;;;19.43;15.53;;;-0.20;68.90;;;;;;6256695;28;20230;-82
2023/01/29 02:15:45;;;;;;;17.93;16.13;;;-0.20;68.90;;;;;;6272437;28;20363;-82
2023/01/29 02:18:49;;;;;;;16.13;14.43;;;-0.20;68.90;;;;;;6283617;28;20246;-82
2023/01/29 02:22:29;;;;;;;17.00;15.23;;;-0.20;68.90;;;;;;6300074;28;20221;-81
2023/01/29 02:26:09;;;;;;;19.47;15.93;;;-0.20;68.90;;;;;;6296949;28;20241;-81
2023/01/29 02:29:25;;;;;;;17.33;15.47;;;-0.20;69.10;;;;;;6296727;28;20238;-82
2023/01/29 02:32:34;;;;;;;20.77;16.00;;;-0.20;69.10;;;;;;6283078;28;20258;-81
2023/01/29 02:35:43;;;;;;;17.70;15.63;;;-0.20;69.10;;;;;;6263122;28;20242;-81
2023/01/29 02:38:54;;;;;;;16.67;14.97;;;-0.20;69.10;;;;;;6253231;28;20230;-81
2023/01/29 02:42:06;;;;;;;17.50;15.70;;;-0.20;69.20;;;;;;6266903;28;20650;-81
2023/01/29 02:45:16;;;;;;;20.73;16.73;;;-0.10;69.00;;;;;;6273015;28;20233;-81
2023/01/29 02:48:23;;;;;;;18.47;16.33;;;-0.10;69.10;;;;;;6274173;28;20240;-81
2023/01/29 02:51:34;;;;;;;16.50;14.67;;;-0.10;69.20;;;;;;6300174;28;20229;-82
2023/01/29 02:54:45;;;;;;;19.60;16.33;;;-0.20;69.30;;;;;;6297993;28;20276;-82
2023/01/29 02:57:52;;;;;;;19.37;15.37;;;-0.20;69.30;;;;;;6295462;28;20222;-81
2023/01/29 03:01:01;;;;;;;19.27;15.70;;;-0.10;69.30;;;;;;6290594;28;20230;-80
2023/01/29 03:04:10;;;;;;;17.77;15.87;;;-0.20;69.40;;;;;;6266137;28;20416;-80
2023/01/29 03:07:40;;;;;;;20.13;16.73;;;-0.20;69.40;;;;;;6264813;28;20348;-82
2023/01/29 03:10:47;;;;;;;20.10;16.03;;;-0.20;69.50;;;;;;6264348;28;20253;-81
2023/01/29 03:13:55;;;;;;;18.57;15.20;;;-0.20;69.60;;;;;;6264796;28;20252;-80
2023/01/29 03:17:04;;;;;;;20.37;16.53;;;-0.10;69.60;;;;;;6263097;28;20238;-81
2023/01/29 03:20:13;;;;;;;23.13;17.50;;;-0.10;69.60;;;;;;6257037;28;20321;-83
2023/01/29 03:23:26;;;;;;;18.03;15.93;;;-0.10;69.70;;;;;;6264515;28;20241;-81
2023/01/29 03:33:17;;;;;;;17.47;15.67;;;-0.10;69.90;;;;;;6238917;28;20304;-81
2023/01/29 03:36:23;;;;;;;18.10;15.43;;;-0.10;70.00;;;;;;6246941;28;20374;-81
2023/01/29 03:39:29;;;;;;;21.00;17.03;;;-0.10;70.10;;;;;;6240246;28;20273;-81
2023/01/29 03:42:45;;;;;;;22.03;16.23;;;-0.10;70.20;;;;;;6256925;28;20733;-81
2023/01/29 03:46:00;;;;;;;20.20;16.53;;;-0.10;70.10;;;;;;6265822;28;20674;-81
2023/01/29 03:49:15;;;;;;;18.00;15.47;;;-0.10;70.30;;;;;;6263614;28;20341;-80
2023/01/29 03:52:23;;;;;;;22.80;16.90;;;-0.10;70.40;;;;;;6263114;28;20407;-81
2023/01/29 03:55:36;;;;;;;19.50;15.93;;;-0.10;70.70;;;;;;6262725;28;20253;-81
2023/01/29 03:58:45;;;;;;;21.00;17.07;;;-0.10;70.50;;;;;;6263328;28;20272;-82
2023/01/29 04:01:52;;;;;;;20.33;16.10;;;-0.10;70.50;;;;;;6263505;28;20327;-80
2023/01/29 04:05:01;;;;;;;20.40;17.17;;;0.00;70.30;;;;;;6264367;28;20232;-82
2023/01/29 04:08:10;;;;;;;21.80;17.60;;;0.00;70.50;;;;;;6252332;28;20253;-83
2023/01/29 04:11:18;;;;;;;19.73;16.07;;;-0.10;70.70;;;;;;6263222;28;20317;-81
2023/01/29 04:14:22;;;;;;;19.67;15.87;;;-0.10;70.80;;;;;;6265052;28;20729;-82
2023/01/29 04:17:31;;;;;;;19.30;16.37;;;0.00;70.70;;;;;;6262592;28;20338;-81
2023/01/29 04:20:37;;;;;;;20.00;15.40;;;0.00;70.60;;;;;;6266949;28;20255;-82
2023/01/29 04:23:40;;;;;;;17.50;15.10;;;0.00;70.50;;;;;;6270941;28;20242;-82
2023/01/29 04:27:09;;;;;;;17.77;14.97;;;0.00;70.50;;;;;;6268743;28;20238;-81
2023/01/29 04:30:29;;;;;;;19.87;15.60;;;0.00;70.60;;;;;;6270333;28;25217;-81
2023/01/29 04:33:41;;;;;;;20.73;16.17;;;0.00;70.90;;;;;;6259838;28;20245;-82
2023/01/29 04:36:57;;;;;;;24.47;17.63;;;-0.10;71.50;;;;;;6272080;28;20244;-82
2023/01/29 04:40:11;;;;;;;21.73;16.40;;;0.00;71.70;;;;;;6275344;28;20252;-83
2023/01/29 04:43:21;;;;;;;19.10;15.80;;;0.00;71.90;;;;;;6285407;28;20238;-82
2023/01/29 04:46:32;;;;;;;18.87;16.83;;;-0.10;72.50;;;;;;6273345;28;20245;-81
2023/01/29 04:49:45;;;;;;;21.73;17.37;;;-0.10;73.00;;;;;;6272476;28;20334;-82
2023/01/29 04:52:57;;;;;;;23.57;17.60;;;-0.10;73.20;;;;;;6283365;28;20241;-82
2023/01/29 04:56:09;;;;;;;27.77;17.57;;;-0.20;73.40;;;;;;6279913;28;20273;-82
2023/01/29 04:59:16;;;;;;;26.27;18.23;;;-0.20;73.80;;;;;;6283108;28;20789;-83
2023/01/29 05:02:24;;;;;;;27.80;18.97;;;-0.20;73.90;;;;;;6278415;28;20238;-82
2023/01/29 05:05:29;;;;;;;23.00;18.10;;;-0.20;74.30;;;;;;6273958;28;20651;-81
2023/01/29 05:08:35;;;;;;;26.80;18.23;;;-0.10;74.40;;;;;;6275359;28;20727;-83
2023/01/29 05:11:38;;;;;;;26.10;18.70;;;-0.10;74.50;;;;;;6269849;28;20232;-81
2023/01/29 05:14:43;;;;;;;29.50;19.80;;;-0.10;74.90;;;;;;6270314;28;20319;-83
2023/01/29 05:17:46;;;;;;;24.57;18.80;;;-0.10;75.10;;;;;;6274601;28;20294;-80
2023/01/29 05:20:50;;;;;;;27.60;19.43;;;-0.10;75.40;;;;;;6261796;28;20388;-82
2023/01/29 05:24:13;;;;;;;24.63;18.60;;;-0.10;75.50;;;;;;6265379;28;20246;-81
2023/01/29 05:30:40;;;;;;;22.03;17.03;;;-0.10;75.90;;;;;;6288861;28;20226;-79
2023/01/29 05:33:43;;;;;;;28.37;18.67;;;-0.10;76.00;;;;;;6292721;28;20242;-80
2023/01/29 05:36:47;;;;;;;25.53;18.87;;;0.00;76.20;;;;;;6281469;28;20234;-79
2023/01/29 05:39:51;;;;;;;25.87;19.57;;;-0.10;76.40;;;;;;6269127;28;20241;-79
2023/01/29 05:42:54;;;;;;;31.13;20.80;;;0.00;76.80;;;;;;6270197;28;20245;-82
2023/01/29 05:45:59;;;;;;;25.40;19.20;;;0.00;76.70;;;;;;6264152;28;20221;-81
2023/01/29 05:49:02;;;;;;;29.03;20.47;;;-0.10;76.90;;;;;;6265504;28;20277;-80
2023/01/29 05:52:08;;;;;;;29.00;20.70;;;-0.10;77.10;;;;;;6267092;28;20242;-79
2023/01/29 05:55:12;;;;;;;29.00;20.03;;;-0.10;77.20;;;;;;6270158;28;20247;-78
2023/01/29 05:58:18;;;;;;;29.03;21.07;;;0.00;76.90;;;;;;6266144;28;20764;-78
2023/01/29 06:01:23;;;;;;;27.63;19.57;;;0.00;76.80;;;;;;6265225;28;20241;-78
2023/01/29 06:04:26;;;;;;;25.23;18.53;;;0.00;76.80;;;;;;6267579;28;20235;-79
2023/01/29 06:07:29;;;;;;;31.33;21.80;;;0.00;76.60;;;;;;6265929;28;20722;-79
2023/01/29 06:10:36;;;;;;;26.63;19.40;;;0.00;76.60;;;;;;6262517;28;20244;-77
2023/01/29 06:13:40;;;;;;;30.60;21.20;;;0.00;76.60;;;;;;6266949;28;20849;-79
2023/01/29 06:16:43;;;;;;;31.43;21.10;;;0.00;76.70;;;;;;6264445;28;20244;-79
2023/01/29 06:19:46;;;;;;;25.57;20.00;;;0.00;76.70;;;;;;6260878;28;20237;-79
2023/01/29 06:22:51;;;;;;;26.97;19.47;;;0.00;76.60;;;;;;6258537;28;20229;-78
2023/01/29 06:25:59;;;;;;;31.50;21.40;;;0.00;76.60;;;;;;6266995;28;20237;-77
2023/01/29 06:29:04;;;;;;;31.70;21.87;;;0.00;76.70;;;;;;6265536;28;20234;-80
2023/01/29 06:32:07;;;;;;;27.60;21.10;;;0.00;76.80;;;;;;6264823;28;20350;-80
2023/01/29 06:35:10;;;;;;;27.30;20.37;;;0.10;76.60;;;;;;6275197;28;20957;-78
2023/01/29 06:38:13;;;;;;;29.10;22.53;;;0.10;76.50;;;;;;6265126;28;20311;-79
2023/01/29 06:41:21;;;;;;;29.00;21.17;;;0.10;76.50;;;;;;6263305;28;20860;-79
2023/01/29 06:44:24;;;;;;;29.10;20.63;;;0.00;76.70;;;;;;6269688;28;20605;-76
2023/01/29 06:47:28;;;;;;;29.80;20.90;;;0.00;76.90;;;;;;6266261;28;20590;-78
2023/01/29 06:50:31;;;;;;;33.50;22.57;;;0.00;77.00;;;;;;6267812;28;20233;-77
2023/01/29 06:53:35;;;;;;;30.27;21.50;;;0.00;77.00;;;;;;6262440;28;20237;-78
2023/01/29 06:56:40;;;;;;;28.80;21.47;;;0.00;77.00;;;;;;6261837;28;20249;-74
2023/01/29 06:59:43;;;;;;;31.23;20.90;;;0.00;76.90;;;;;;6275003;28;20295;-77
2023/01/29 07:02:49;;;;;;;31.40;22.00;;;0.10;76.90;;;;;;6262054;28;20256;-78
2023/01/29 07:05:52;;;;;;;37.20;22.80;;;0.10;76.80;;;;;;6270408;28;20236;-78
2023/01/29 07:08:55;;;;;;;27.57;20.90;;;0.10;76.90;;;;;;6266221;28;20281;-79
2023/01/29 07:12:00;;;;;;;35.33;22.83;;;0.10;76.90;;;;;;6261125;28;20226;-79
2023/01/29 07:15:03;;;;;;;31.43;22.07;;;0.10;77.00;;;;;;6259945;28;20245;-78
2023/01/29 07:18:11;;;;;;;32.60;22.43;;;0.00;77.20;;;;;;6264773;28;20684;-77
2023/01/29 07:21:14;;;;;;;32.97;22.47;;;0.10;77.20;;;;;;6259761;28;20265;-80
2023/01/29 07:24:17;;;;;;;31.37;21.80;;;0.20;77.00;;;;;;6252746;28;20250;-80
2023/01/29 07:27:22;;;;;;;35.23;22.97;;;0.20;77.10;;;;;;6272639;28;20238;-79
2023/01/29 07:30:25;;;;;;;32.27;22.97;;;0.20;77.30;;;;;;6263302;28;20245;-78
2023/01/29 07:33:28;;;;;;;34.30;22.37;;;0.10;77.50;;;;;;6264424;28;20725;-80
2023/01/29 07:36:31;;;;;;;32.83;22.73;;;0.20;77.40;;;;;;6253471;28;20234;-78
2023/01/29 07:39:39;;;;;;;34.30;24.07;;;0.10;77.60;;;;;;6262983;28;20230;-77
2023/01/29 07:42:44;;;;;;;32.60;22.80;;;0.10;77.60;;;;;;6261777;28;20233;-77
2023/01/29 07:45:47;;;;;;;33.50;24.33;;;0.20;77.60;;;;;;6249594;28;20231;-79
2023/01/29 07:48:50;;;;;;;33.33;22.17;;;0.20;77.60;;;;;;6272991;28;20241;-77
2023/01/29 07:51:54;;;;;;;32.70;22.47;;;0.20;77.80;;;;;;6268491;28;20319;-77
2023/01/29 07:54:57;;;;;;;38.20;23.77;;;0.20;77.90;;;;;;6270015;28;20226;-80
2023/01/29 07:58:02;;;;;;;35.10;24.17;;;0.20;77.70;;;;;;6271895;28;20351;-78
2023/01/29 08:01:07;;;;;;;37.87;24.40;;;0.30;77.80;;;;;;6270854;28;20238;-77
2023/01/29 08:04:10;;;;;;;33.93;23.27;;;0.20;77.90;;;;;;6265730;28;20317;-78
2023/01/29 08:07:13;;;;;;;34.97;23.27;;;0.20;78.10;;;;;;6264930;28;20348;-76
2023/01/29 08:10:18;;;;;;;33.23;23.53;;;0.20;78.50;;;;;;6264858;28;20244;-80
2023/01/29 08:13:23;;;;;;;37.70;25.30;;;0.20;78.80;;;;;;6272882;28;20246;-78
2023/01/29 08:16:26;;;;;;;39.53;25.77;;;0.20;78.90;;;;;;6276140;28;20242;-79
2023/01/29 08:19:29;;;;;;;39.77;24.20;;;0.20;78.90;;;;;;6270478;28;20260;-75
2023/01/29 08:22:33;;;;;;;38.70;24.07;;;0.20;79.00;;;;;;6271348;28;20233;-76
2023/01/29 08:25:36;;;;;;;34.27;22.53;;;0.10;79.20;;;;;;6272409;28;20985;-78
2023/01/29 08:28:41;;;;;;;38.10;24.47;;;0.20;79.30;;;;;;6276234;28;20730;-80
2023/01/29 08:31:44;;;;;;;38.07;26.17;;;0.20;79.20;;;;;;6255900;28;20230;-78
2023/01/29 08:34:48;;;;;;;53.63;30.23;;;0.20;79.10;;;;;;6270908;28;20329;-79
2023/01/29 08:37:55;;;;;;;41.17;25.10;;;0.30;79.00;;;;;;6276878;28;20313;-77
2023/01/29 08:40:58;;;;;;;38.93;25.17;;;0.30;79.20;;;;;;6279408;28;20718;-75
2023/01/29 08:44:03;;;;;;;36.43;25.03;;;0.40;79.00;;;;;;6284806;28;20322;-76
2023/01/29 08:47:06;;;;;;;38.27;24.57;;;0.40;79.00;;;;;;6273362;28;20635;-81
2023/01/29 08:50:10;;;;;;;37.93;25.27;;;0.40;79.10;;;;;;6273291;28;20234;-79
2023/01/29 08:53:13;;;;;;;33.87;23.50;;;0.40;79.30;;;;;;6267104;28;20267;-79
2023/01/29 08:56:16;;;;;;;37.53;25.60;;;0.40;79.30;;;;;;6258379;28;20246;-78
2023/01/29 08:59:21;;;;;;;34.57;23.37;;;0.50;79.00;;;;;;6260823;28;20245;-80
2023/01/29 09:02:24;;;;;;;40.03;24.53;;;0.50;79.00;;;;;;6259645;28;20245;-79
2023/01/29 09:05:28;;;;;;;38.17;25.00;;;0.60;78.80;;;;;;6256699;28;20253;-80
2023/01/29 09:08:31;;;;;;;34.90;23.07;;;0.60;78.70;;;;;;6256944;28;20499;-80
2023/01/29 09:11:34;;;;;;;39.87;24.43;;;0.60;78.80;;;;;;6263689;28;20828;-79
2023/01/29 09:14:39;;;;;;;32.07;22.57;;;0.60;78.90;;;;;;6265096;28;20761;-79
2023/01/29 09:17:42;;;;;;;36.13;24.77;;;0.60;78.70;;;;;;6267554;28;20321;-80
2023/01/29 09:20:45;;;;;;;33.13;23.53;;;0.60;78.50;;;;;;6265736;28;20234;-78
2023/01/29 09:23:48;;;;;;;35.53;23.70;;;0.60;78.40;;;;;;6277933;28;20226;-78
2023/01/29 09:26:51;;;;;;;38.23;24.03;;;0.70;78.10;;;;;;6296410;28;20297;-76
2023/01/29 09:29:55;;;;;;;41.63;23.33;;;0.80;78.00;;;;;;6297368;28;20297;-75
2023/01/29 09:33:00;;;;;;;33.00;23.50;;;0.80;78.10;;;;;;6291395;28;20234;-76
2023/01/29 09:36:04;;;;;;;32.67;21.27;;;0.80;77.80;;;;;;6308274;28;20245;-77
2023/01/29 09:39:07;;;;;;;34.23;22.63;;;0.90;77.60;;;;;;6273348;28;20509;-80
2023/01/29 09:42:17;;;;;;;29.57;21.50;;;1.00;77.20;;;;;;6258783;28;20856;-80
2023/01/29 09:45:25;;;;;;;30.60;22.87;;;1.00;77.10;;;;;;6267814;28;20234;-80
2023/01/29 09:48:32;;;;;;;32.33;22.30;;;1.00;77.20;;;;;;6272332;28;20233;-80
2023/01/29 09:51:40;;;;;;;28.57;21.40;;;1.00;77.00;;;;;;6270749;28;20230;-78
2023/01/29 09:54:50;;;;;;;29.47;20.53;;;1.10;77.10;;;;;;6273745;28;20257;-80
2023/01/29 09:57:56;;;;;;;27.90;20.17;;;1.20;76.60;;;;;;6271114;28;20230;-77
2023/01/29 10:01:10;;;;;;;28.33;20.60;;;1.20;76.40;;;;;;6295965;28;20313;-76
2023/01/29 10:04:38;;;;;;;28.17;21.17;;;1.30;76.10;;;;;;6300027;28;20297;-78
2023/01/29 10:08:11;;;;;;;30.13;19.87;;;1.40;75.80;;;;;;6288902;28;20252;-76
2023/01/29 10:11:25;;;;;;;24.60;19.67;;;1.40;75.90;;;;;;6281387;28;20293;-75
2023/01/29 10:14:36;;;;;;;28.87;20.33;;;1.40;75.50;;;;;;6272411;28;20245;-81
2023/01/29 10:17:54;;;;;;;25.17;18.77;;;1.40;75.50;;;;;;6269630;28;20240;-78
2023/01/29 10:21:08;;;;;;;24.90;19.73;;;1.40;75.40;;;;;;6266939;28;20239;-77
2023/01/29 10:24:24;;;;;;;25.87;19.13;;;1.40;75.50;;;;;;6253146;28;20246;-79
2023/01/29 10:27:33;;;;;;;23.57;18.20;;;1.50;75.50;;;;;;6270786;28;20316;-79
2023/01/29 10:30:40;;;;;;;26.33;19.33;;;1.70;75.20;;;;;;6274548;28;20244;-80
2023/01/29 10:33:50;;;;;;;24.27;19.13;;;1.80;74.70;;;;;;6274221;28;20233;-76
2023/01/29 10:37:17;;;;;;;28.03;18.53;;;1.90;74.30;;;;;;6270135;28;20234;-79
2023/01/29 10:40:21;;;;;;;20.17;16.07;;;2.10;73.40;;;;;;6275315;28;20313;-78
2023/01/29 10:43:33;;;;;;;21.97;17.20;;;2.00;73.30;;;;;;6263714;28;20242;-80
2023/01/29 10:46:49;;;;;;;18.30;16.33;;;2.20;73.30;;;;;;6261055;28;20720;-81
2023/01/29 10:50:16;;;;;;;24.63;17.63;;;2.10;73.00;;;;;;6257023;28;20226;-80
2023/01/29 10:53:43;;;;;;;20.70;16.53;;;2.20;73.00;;;;;;6273139;28;20229;-80
2023/01/29 10:57:01;;;;;;;21.00;16.20;;;2.20;72.50;;;;;;6261449;28;20245;-77
2023/01/29 11:00:11;;;;;;;21.23;16.93;;;2.30;72.40;;;;;;6260262;28;20824;-78
2023/01/29 11:03:17;;;;;;;20.73;16.40;;;2.40;72.30;;;;;;6265664;28;20246;-80
2023/01/29 11:06:33;;;;;;;18.43;16.33;;;2.50;72.00;;;;;;6257082;28;20227;-79
2023/01/29 11:09:42;;;;;;;23.10;16.37;;;2.70;71.40;;;;;;6267513;28;20230;-79
2023/01/29 11:12:46;;;;;;;20.60;16.23;;;2.70;71.40;;;;;;6266386;28;20237;-77
2023/01/29 11:15:52;;;;;;;22.90;16.17;;;2.70;71.20;;;;;;6263110;28;20236;-78
2023/01/29 11:18:58;;;;;;;18.73;15.10;;;2.80;71.00;;;;;;6274952;28;20229;-79
2023/01/29 11:22:03;;;;;;;22.63;15.57;;;2.70;70.50;;;;;;6264080;28;20265;-80
2023/01/29 11:25:15;;;;;;;17.87;15.70;;;2.80;70.50;;;;;;6261033;28;20269;-79
2023/01/29 11:28:36;;;;;;;18.60;15.30;;;2.80;70.20;;;;;;6266296;28;20223;-78
2023/01/29 11:31:40;;;;;;;19.03;15.63;;;2.70;70.30;;;;;;6270645;28;20330;-77
2023/01/29 11:35:03;;;;;;;16.67;14.70;;;2.80;70.40;;;;;;6292412;28;20246;-78
2023/01/29 11:38:17;;;;;;;20.77;15.33;;;2.90;70.00;;;;;;6290039;28;20225;-77
2023/01/29 11:41:21;;;;;;;17.17;14.93;;;2.80;69.80;;;;;;6292505;28;20232;-78
2023/01/29 11:44:29;;;;;;;18.00;15.00;;;2.80;69.40;;;;;;6292617;28;20529;-80
2023/01/29 11:47:33;;;;;;;19.07;15.33;;;2.90;69.50;;;;;;6293511;28;20213;-78
2023/01/29 11:50:37;;;;;;;16.73;15.07;;;2.90;69.60;;;;;;6296689;28;20237;-77
2023/01/29 11:53:44;;;;;;;16.30;14.70;;;3.00;69.70;;;;;;6297526;28;20282;-77
2023/01/29 11:56:50;;;;;;;16.43;14.57;;;3.00;69.50;;;;;;6293014;28;20238;-79
2023/01/29 11:59:55;;;;;;;17.80;15.57;;;3.10;69.40;;;;;;6293339;28;20269;-76
2023/01/29 12:03:06;;;;;;;16.10;14.37;;;3.10;69.00;;;;;;6293352;28;20463;-75
2023/01/29 12:06:18;;;;;;;17.70;15.13;;;3.10;68.80;;;;;;6293868;28;20282;-77
2023/01/29 12:09:26;;;;;;;15.70;14.07;;;3.10;68.40;;;;;;6291611;28;20229;-79
2023/01/29 12:12:34;;;;;;;16.33;14.00;;;3.10;68.40;;;;;;6295196;28;20252;-76
2023/01/29 12:15:39;;;;;;;19.57;16.03;;;3.00;68.40;;;;;;6292998;28;20248;-79
2023/01/29 12:18:47;;;;;;;17.97;14.83;;;3.00;68.40;;;;;;6287539;28;20217;-78
2023/01/29 12:21:55;;;;;;;17.00;15.00;;;3.00;68.50;;;;;;6291685;28;20241;-75
2023/01/29 12:25:07;;;;;;;16.10;14.47;;;3.00;68.40;;;;;;6292411;28;20238;-78
2023/01/29 12:28:29;;;;;;;17.33;13.73;;;3.10;68.30;;;;;;6292053;28;20222;-79
2023/01/29 12:31:38;;;;;;;16.63;13.93;;;3.10;68.10;;;;;;6284925;28;20274;-78
2023/01/29 12:34:46;;;;;;;15.53;13.90;;;3.10;68.20;;;;;;6290914;28;20309;-76
2023/01/29 12:37:57;;;;;;;16.80;15.00;;;3.10;68.40;;;;;;6295947;28;20225;-79
2023/01/29 12:41:10;;;;;;;16.20;14.10;;;3.10;68.40;;;;;;6288658;28;20253;-78
2023/01/29 12:44:16;;;;;;;15.37;13.77;;;3.20;68.00;;;;;;6272827;28;20731;-80
2023/01/29 12:47:27;;;;;;;15.97;14.13;;;3.20;68.00;;;;;;6269152;28;20778;-78
2023/01/29 12:50:34;;;;;;;16.33;14.63;;;3.20;67.80;;;;;;6268644;28;20249;-78
2023/01/29 12:53:42;;;;;;;16.13;14.43;;;3.10;68.00;;;;;;6267882;28;20238;-82
2023/01/29 12:56:49;;;;;;;16.27;14.57;;;3.00;68.30;;;;;;6255897;28;20240;-76
2023/01/29 12:59:58;;;;;;;15.40;13.77;;;3.00;68.20;;;;;;6270207;28;20226;-77
2023/01/29 13:03:08;;;;;;;18.87;15.47;;;2.80;68.70;;;;;;6271750;28;20226;-81
2023/01/29 13:06:15;;;;;;;18.40;15.67;;;2.90;68.50;;;;;;6278573;28;25102;-77
2023/01/29 13:09:23;;;;;;;16.40;14.67;;;2.90;68.70;;;;;;6273594;28;20261;-80
2023/01/29 13:12:29;;;;;;;18.53;14.23;;;2.90;68.70;;;;;;6274403;28;20321;-76
2023/01/29 13:15:38;;;;;;;19.30;15.77;;;2.90;68.80;;;;;;6267442;28;20257;-79
2023/01/29 13:18:46;;;;;;;16.40;14.80;;;2.80;68.90;;;;;;6273909;28;20236;-77
2023/01/29 13:21:49;;;;;;;16.17;14.47;;;2.90;68.90;;;;;;6277263;28;20234;-79
2023/01/29 13:24:53;;;;;;;16.50;14.13;;;2.90;68.80;;;;;;6273891;28;20229;-81
2023/01/29 13:28:17;;;;;;;16.13;14.43;;;3.00;69.00;;;;;;6272245;28;20240;-78
2023/01/29 13:31:31;;;;;;;18.77;14.53;;;2.90;68.90;;;;;;6271725;28;20615;-78
2023/01/29 13:34:37;;;;;;;18.30;15.20;;;3.00;69.00;;;;;;6269454;28;20306;-80
2023/01/29 13:37:47;;;;;;;17.63;14.27;;;3.00;68.90;;;;;;6273696;28;20254;-77
2023/01/29 13:40:51;;;;;;;17.93;15.30;;;2.90;68.90;;;;;;6278246;28;21141;-79
2023/01/29 13:43:56;;;;;;;18.50;13.93;;;2.90;69.10;;;;;;6271370;28;20226;-79
2023/01/29 13:47:01;;;;;;;16.67;14.37;;;2.90;69.00;;;;;;6260617;28;20748;-80
2023/01/29 13:50:07;;;;;;;16.73;14.73;;;2.90;69.20;;;;;;6254534;28;20233;-78
2023/01/29 13:53:21;;;;;;;16.80;14.57;;;2.90;69.20;;;;;;6277437;28;20233;-78
2023/01/29 13:56:48;;;;;;;15.37;13.73;;;2.90;69.20;;;;;;6281294;28;20241;-80
2023/01/29 13:59:55;;;;;;;17.50;15.03;;;2.70;69.50;;;;;;6275029;28;20310;-81
2023/01/29 14:03:30;;;;;;;18.43;15.07;;;2.70;69.50;;;;;;6260722;28;20257;-79
2023/01/29 14:06:53;;;;;;;17.93;14.80;;;2.70;69.70;;;;;;6261818;28;20694;-78
2023/01/29 14:10:14;;;;;;;16.97;14.67;;;2.80;69.60;;;;;;6258484;28;20260;-78
2023/01/29 14:13:28;;;;;;;19.23;15.97;;;2.70;69.80;;;;;;6261042;28;20699;-81
2023/01/29 14:16:37;;;;;;;21.43;16.30;;;2.50;70.60;;;;;;6262363;28;20630;-76
2023/01/29 14:19:47;;;;;;;23.13;17.67;;;2.50;71.00;;;;;;6260541;28;20722;-81
2023/01/29 14:22:56;;;;;;;22.57;16.90;;;2.50;71.10;;;;;;6252991;28;20242;-78
2023/01/29 14:26:01;;;;;;;21.40;16.90;;;2.50;71.50;;;;;;6264554;28;20363;-79
2023/01/29 14:29:17;;;;;;;21.67;17.60;;;2.50;72.30;;;;;;6267054;28;20249;-78
2023/01/29 14:32:32;;;;;;;21.80;18.20;;;2.50;72.50;;;;;;6254693;28;20242;-79
2023/01/29 14:35:50;;;;;;;22.90;18.17;;;2.50;72.90;;;;;;6267437;28;20817;-79
2023/01/29 14:38:54;;;;;;;24.73;16.67;;;2.50;72.90;;;;;;6263396;28;20253;-80
2023/01/29 14:41:59;;;;;;;25.67;19.23;;;2.40;73.30;;;;;;6257349;28;20610;-79
2023/01/29 14:45:10;;;;;;;21.13;17.50;;;2.40;73.30;;;;;;6258899;28;20245;-78
2023/01/29 14:48:46;;;;;;;22.60;18.67;;;2.40;73.50;;;;;;6266125;28;20284;-78
2023/01/29 14:51:51;;;;;;;26.67;19.97;;;2.40;73.90;;;;;;6261762;28;20226;-81
2023/01/29 14:54:59;;;;;;;24.13;19.27;;;2.20;74.90;;;;;;6261989;28;20238;-80
2023/01/29 14:58:04;;;;;;;26.70;19.60;;;2.10;75.20;;;;;;6264076;28;20725;-77
2023/01/29 15:01:18;;;;;;;27.60;20.60;;;2.10;75.20;;;;;;6260320;28;20253;-78
2023/01/29 15:04:27;;;;;;;27.57;19.90;;;2.10;75.50;;;;;;6264506;28;20238;-79
2023/01/29 15:07:37;;;;;;;27.90;21.00;;;2.00;75.90;;;;;;6261158;28;20238;-79
2023/01/29 15:10:43;;;;;;;26.53;19.30;;;2.00;76.20;;;;;;6255008;28;20226;-77
2023/01/29 15:13:53;;;;;;;28.53;20.33;;;2.00;76.30;;;;;;6259995;28;20242;-78
2023/01/29 15:17:16;;;;;;;24.23;19.53;;;2.00;76.00;;;;;;6268886;28;20257;-80
2023/01/29 15:20:32;;;;;;;27.53;19.63;;;2.00;76.00;;;;;;6284455;28;20234;-77
2023/01/29 15:23:35;;;;;;;25.03;18.33;;;2.00;76.20;;;;;;6269749;28;20262;-80
2023/01/29 15:26:42;;;;;;;26.53;20.63;;;2.00;76.20;;;;;;6266911;28;20234;-81
2023/01/29 15:29:52;;;;;;;25.93;20.17;;;1.90;76.70;;;;;;6274540;28;20264;-82
2023/01/29 15:32:57;;;;;;;25.67;20.33;;;1.80;77.00;;;;;;6272727;28;20928;-79
2023/01/29 15:36:03;;;;;;;23.73;19.40;;;1.80;77.00;;;;;;6259988;28;20233;-76
2023/01/29 15:39:18;;;;;;;26.03;20.73;;;1.80;76.70;;;;;;6262246;28;20593;-80
2023/01/29 15:42:25;;;;;;;29.07;20.23;;;1.70;76.80;;;;;;6262843;28;20249;-77
2023/01/29 15:45:31;;;;;;;22.97;18.50;;;1.70;76.80;;;;;;6261844;28;20241;-78
2023/01/29 15:48:37;;;;;;;24.77;19.80;;;1.70;76.60;;;;;;6257623;28;20616;-78
2023/01/29 15:51:42;;;;;;;23.70;18.90;;;1.70;76.30;;;;;;6263354;28;20232;-80
2023/01/29 15:54:46;;;;;;;25.03;19.93;;;1.70;76.50;;;;;;6261697;28;20246;-78
2023/01/29 15:57:49;;;;;;;27.40;20.10;;;1.70;76.20;;;;;;6264794;28;20237;-77
2023/01/29 16:00:55;;;;;;;22.83;19.50;;;1.60;76.50;;;;;;6256879;28;20264;-79
2023/01/29 16:04:01;;;;;;;24.33;19.57;;;1.60;76.40;;;;;;6275669;28;20234;-79
2023/01/29 16:07:05;;;;;;;25.40;19.97;;;1.70;76.40;;;;;;6268923;28;20244;-80
2023/01/29 16:10:16;;;;;;;27.20;19.93;;;1.60;76.30;;;;;;6263163;28;20245;-80
2023/01/29 16:13:22;;;;;;;28.67;20.50;;;1.60;76.40;;;;;;6263143;28;20769;-79
2023/01/29 16:16:27;;;;;;;23.97;19.63;;;1.60;76.40;;;;;;6260475;28;20585;-80
2023/01/29 16:19:30;;;;;;;27.93;20.90;;;1.60;76.40;;;;;;6260035;28;20724;-80
2023/01/29 16:22:37;;;;;;;30.43;21.23;;;1.60;76.50;;;;;;6260784;28;20245;-79
2023/01/29 16:25:40;;;;;;;30.43;21.33;;;1.60;76.20;;;;;;6269218;28;20248;-80